Time;durP1;ratioP1;P1;durP2;ratioP2;P2;SDS_P1;SDS_P2;PMS_P1;PMS_P2;Temp;Humidity;BMP_temperature;BMP_pressure;BME280_temperature;BME280_humidity;BME280_pressure;Samples;Min_cycle;Max_cycle;Signal;HPM_P1;HPM_P2
2021/01/27 00:00:16;;;;;;;13.80;9.10;;;;;;;2.88;68.56;100994.81;691501;28;21541;-62
2021/01/27 00:00:37;;;;;;;12.77;8.65;;;;;;;2.87;68.43;100993.97;689966;28;45436;-60
2021/01/27 00:01:00;;;;;;;12.70;8.95;;;;;;;2.87;68.53;100983.31;691025;28;22149;-58
2021/01/27 00:01:25;;;;;;;13.57;9.40;;;;;;;2.88;68.58;100993.03;690460;28;30567;-60
2021/01/27 00:01:46;;;;;;;16.10;9.68;;;;;;;2.88;68.37;100993.03;686997;28;138749;-57
2021/01/27 00:02:07;;;;;;;14.50;9.27;;;;;;;2.89;68.48;100994.69;691104;28;21552;-59
2021/01/27 00:02:28;;;;;;;14.25;9.20;;;;;;;2.89;68.37;100993.88;691282;28;22402;-56
2021/01/27 00:02:50;;;;;;;15.38;9.40;;;;;;;2.87;68.36;100993.97;690896;28;22185;-57
2021/01/27 00:03:12;;;;;;;13.18;8.90;;;;;;;2.90;68.44;100990.22;689918;28;44434;-58
2021/01/27 00:03:34;;;;;;;13.10;9.27;;;;;;;2.89;68.45;100992.03;689957;28;45273;-63
2021/01/27 00:03:55;;;;;;;13.27;9.48;;;;;;;2.89;68.31;100991.19;689628;28;44397;-60
2021/01/27 00:04:16;;;;;;;12.13;8.90;;;;;;;2.89;68.36;100992.03;691224;28;22190;-58
2021/01/27 00:04:38;;;;;;;13.15;9.35;;;;;;;2.89;68.42;100996.53;690916;28;22382;-61
2021/01/27 00:04:59;;;;;;;13.45;9.10;;;;;;;2.89;68.39;100996.53;689907;28;40148;-61
2021/01/27 00:05:25;;;;;;;13.57;9.30;;;;;;;2.89;68.40;101000.03;690628;28;22395;-56
2021/01/27 00:05:49;;;;;;;13.82;8.70;;;;;;;2.89;68.36;100992.03;686707;28;139151;-56
2021/01/27 00:06:10;;;;;;;13.48;9.27;;;;;;;2.89;68.41;100993.88;688493;28;90538;-60
2021/01/27 00:06:31;;;;;;;13.48;9.23;;;;;;;2.90;68.38;100998.25;690710;28;21349;-60
2021/01/27 00:06:52;;;;;;;12.23;8.85;;;;;;;2.91;68.55;100999.91;690805;28;22354;-56
2021/01/27 00:07:14;;;;;;;13.25;9.10;;;;;;;2.89;68.41;100993.88;686587;28;22798;-56
2021/01/27 00:07:35;;;;;;;13.40;9.10;;;;;;;2.89;68.46;100993.88;686084;28;45849;-59
2021/01/27 00:07:57;;;;;;;14.02;9.25;;;;;;;2.89;68.37;100993.88;686649;28;20399;-56
2021/01/27 00:08:19;;;;;;;14.15;9.40;;;;;;;2.89;68.38;100992.03;687392;28;932;-59
2021/01/27 00:08:40;;;;;;;13.77;9.38;;;;;;;2.89;68.43;100994.69;685921;28;46268;-60
2021/01/27 00:09:02;;;;;;;12.45;8.75;;;;;;;2.89;68.45;100994.69;687516;28;22398;-62
2021/01/27 00:09:24;;;;;;;14.10;9.23;;;;;;;2.89;68.53;100988.53;690091;28;46553;-61
2021/01/27 00:09:45;;;;;;;13.27;9.35;;;;;;;2.90;68.48;101000.91;689776;28;45939;-58
2021/01/27 00:10:07;;;;;;;14.98;9.25;;;;;;;2.88;68.40;100998.34;691143;28;23477;-59
2021/01/27 00:10:29;;;;;;;16.02;9.57;;;;;;;2.90;68.47;100992.91;690156;28;44593;-58
2021/01/27 00:10:51;;;;;;;14.02;9.70;;;;;;;2.92;68.44;100995.44;689169;28;44527;-56
2021/01/27 00:11:12;;;;;;;14.00;9.43;;;;;;;2.91;68.47;100991.91;690098;28;44391;-59
2021/01/27 00:11:33;;;;;;;12.85;9.00;;;;;;;2.92;68.45;100998.13;690872;28;21265;-61
2021/01/27 00:11:54;;;;;;;14.82;8.90;;;;;;;2.93;68.38;101005.13;690932;28;14543;-62
2021/01/27 00:12:16;;;;;;;15.73;9.05;;;;;;;2.93;68.42;100999.78;691087;28;22401;-60
2021/01/27 00:12:37;;;;;;;15.02;9.13;;;;;;;2.92;68.43;101000.78;690327;28;46261;-59
2021/01/27 00:12:59;;;;;;;12.60;9.00;;;;;;;2.91;68.35;101007.91;690195;28;45260;-58
2021/01/27 00:13:20;;;;;;;13.50;9.00;;;;;;;2.91;68.44;101002.59;691263;28;23567;-57
2021/01/27 00:13:42;;;;;;;11.63;8.52;;;;;;;2.92;68.27;101000.78;690652;28;21600;-62
2021/01/27 00:14:03;;;;;;;12.52;8.40;;;;;;;2.92;68.28;101006.97;689978;28;46383;-59
2021/01/27 00:14:24;;;;;;;11.82;8.90;;;;;;;2.91;68.47;100999.06;690680;28;22477;-59
2021/01/27 00:14:45;;;;;;;12.02;9.15;;;;;;;2.91;68.49;101002.59;690619;28;22408;-62
2021/01/27 00:15:09;;;;;;;13.77;9.43;;;;;;;2.92;68.34;101000.78;690379;28;36094;-57
2021/01/27 00:15:33;;;;;;;14.00;9.20;;;;;;;2.94;68.37;101006.84;689134;28;69431;-58
2021/01/27 00:15:54;;;;;;;15.73;9.43;;;;;;;2.92;68.31;100993.63;688108;28;92316;-58
2021/01/27 00:16:16;;;;;;;14.27;9.23;;;;;;;2.94;68.43;101004.19;690892;28;22738;-60
2021/01/27 00:16:37;;;;;;;16.40;9.68;;;;;;;2.93;68.42;101002.47;689998;28;44408;-59
2021/01/27 00:16:58;;;;;;;16.58;9.52;;;;;;;2.94;68.38;101005.00;691136;28;23493;-56
2021/01/27 00:17:19;;;;;;;16.30;9.40;;;;;;;2.94;68.44;101006.84;690994;28;22371;-62
2021/01/27 00:17:41;;;;;;;12.85;8.77;;;;;;;2.93;68.33;100999.78;691420;28;8605;-60
2021/01/27 00:18:03;;;;;;;12.82;9.07;;;;;;;2.92;68.52;101001.63;690443;28;35649;-57
2021/01/27 00:18:24;;;;;;;15.25;9.30;;;;;;;2.92;68.35;100998.13;689717;28;44355;-60
2021/01/27 00:18:45;;;;;;;14.30;9.75;;;;;;;2.94;68.38;101004.19;690589;28;22398;-62
2021/01/27 00:19:06;;;;;;;12.70;9.20;;;;;;;2.94;68.54;101001.50;690899;28;13272;-63
2021/01/27 00:19:28;;;;;;;14.60;9.73;;;;;;;2.94;68.44;101004.19;690090;28;44423;-60
2021/01/27 00:19:49;;;;;;;14.55;9.57;;;;;;;2.94;68.68;100999.69;691313;28;1019;-62
2021/01/27 00:20:13;;;;;;;14.50;9.98;;;;;;;2.95;68.36;101004.06;691186;28;21544;-60
2021/01/27 00:20:34;;;;;;;13.52;9.60;;;;;;;2.95;68.24;100998.72;688585;28;92208;-59
2021/01/27 00:20:55;;;;;;;14.13;9.43;;;;;;;2.95;68.36;101005.88;691210;28;21609;-60
2021/01/27 00:21:17;;;;;;;16.05;10.10;;;;;;;2.94;68.34;100999.69;690796;28;31271;-61
2021/01/27 00:21:38;;;;;;;15.65;9.68;;;;;;;2.93;68.46;100999.78;690988;28;22531;-57
2021/01/27 00:22:00;;;;;;;14.10;9.68;;;;;;;2.93;68.46;101006.00;686145;28;45844;-62
2021/01/27 00:22:21;;;;;;;14.15;10.15;;;;;;;2.93;68.37;101002.47;686133;28;24380;-60
2021/01/27 00:22:42;;;;;;;15.27;10.52;;;;;;;2.92;68.40;101004.28;686705;28;22386;-60
2021/01/27 00:23:04;;;;;;;14.55;10.15;;;;;;;2.92;68.53;101008.78;686642;28;22437;-58
2021/01/27 00:23:25;;;;;;;15.55;9.88;;;;;;;2.93;68.36;100999.78;685847;28;45293;-59
2021/01/27 00:23:47;;;;;;;14.95;9.93;;;;;;;2.92;68.55;101000.78;683638;28;44419;-59
2021/01/27 00:24:08;;;;;;;14.75;9.48;;;;;;;2.92;68.60;101001.63;688250;28;23459;-57
2021/01/27 00:24:30;;;;;;;15.63;9.75;;;;;;;2.91;68.49;101001.75;688049;28;21542;-57
2021/01/27 00:24:52;;;;;;;15.80;9.57;;;;;;;2.92;68.53;100995.44;687073;28;44762;-59
2021/01/27 00:25:14;;;;;;;14.57;9.75;;;;;;;2.93;68.43;100994.47;687023;28;45251;-65
2021/01/27 00:25:37;;;;;;;15.77;10.43;;;;;;;2.94;68.54;100998.84;687614;28;67668;-62
2021/01/27 00:25:59;;;;;;;15.27;9.80;;;;;;;2.93;68.65;100995.31;689081;28;69497;-57
2021/01/27 00:26:20;;;;;;;15.93;9.98;;;;;;;2.93;68.46;100999.78;689378;28;44419;-57
2021/01/27 00:26:41;;;;;;;16.67;10.23;;;;;;;2.92;68.40;100998.97;690580;28;22124;-60
2021/01/27 00:27:02;;;;;;;13.75;9.57;;;;;;;2.93;68.48;100994.47;690084;28;45262;-59
2021/01/27 00:27:24;;;;;;;14.05;9.38;;;;;;;2.93;68.51;100997.13;691691;28;1100;-60
2021/01/27 00:27:45;;;;;;;14.57;9.55;;;;;;;2.92;68.59;100998.97;689440;28;21176;-59
2021/01/27 00:28:08;;;;;;;15.68;9.52;;;;;;;2.92;68.63;100998.97;689564;28;23498;-57
2021/01/27 00:28:29;;;;;;;15.43;9.52;;;;;;;2.96;68.53;100992.41;688798;28;91631;-59
2021/01/27 00:28:51;;;;;;;14.15;9.48;;;;;;;2.96;68.38;101003.09;690918;28;24342;-59
2021/01/27 00:29:12;;;;;;;13.07;9.32;;;;;;;2.96;68.40;100997.75;690659;28;24326;-61
2021/01/27 00:29:33;;;;;;;12.35;9.07;;;;;;;2.96;68.42;100994.22;691294;28;1589;-58
2021/01/27 00:29:55;;;;;;;14.43;9.57;;;;;;;2.95;68.40;100998.72;689373;28;46339;-58
2021/01/27 00:30:20;;;;;;;15.88;9.95;;;;;;;2.97;68.52;100996.75;690841;28;23412;-63
2021/01/27 00:30:42;;;;;;;13.88;9.63;;;;;;;2.97;68.48;101001.25;687655;28;113641;-54
2021/01/27 00:31:04;;;;;;;13.95;9.57;;;;;;;2.96;68.31;100991.56;689189;28;67536;-57
2021/01/27 00:31:26;;;;;;;13.20;9.43;;;;;;;2.96;68.17;101000.44;690074;28;22518;-58
2021/01/27 00:31:47;;;;;;;14.55;10.10;;;;;;;2.98;68.14;100997.59;689283;28;43000;-59
2021/01/27 00:32:08;;;;;;;14.93;10.68;;;;;;;2.97;68.39;100998.59;691062;28;22437;-59
2021/01/27 00:32:30;;;;;;;17.17;10.07;;;;;;;2.97;68.27;101007.44;690440;28;45301;-58
2021/01/27 00:32:51;;;;;;;15.90;9.70;;;;;;;2.96;68.31;100997.75;690355;28;23453;-57
2021/01/27 00:33:15;;;;;;;14.40;9.88;;;;;;;2.96;68.10;100999.56;689934;28;47462;-59
2021/01/27 00:33:37;;;;;;;15.18;9.95;;;;;;;2.96;68.33;100996.88;689659;28;70192;-62
2021/01/27 00:33:58;;;;;;;15.70;9.50;;;;;;;2.97;68.49;100993.25;689414;28;46784;-61
2021/01/27 00:34:21;;;;;;;16.20;9.90;;;;;;;2.97;68.44;100999.44;691247;28;23459;-61
2021/01/27 00:34:42;;;;;;;14.50;9.85;;;;;;;2.97;68.39;100995.94;689485;28;67260;-60
2021/01/27 00:35:05;;;;;;;13.95;9.55;;;;;;;2.97;68.36;100999.44;690521;28;21544;-56
2021/01/27 00:35:30;;;;;;;14.95;10.07;;;;;;;2.97;68.36;101001.25;688386;28;92281;-59
2021/01/27 00:35:51;;;;;;;14.30;10.15;;;;;;;2.97;68.18;101003.94;687571;28;115431;-58
2021/01/27 00:36:12;;;;;;;14.15;10.23;;;;;;;2.96;68.39;100997.75;689855;28;46407;-59
2021/01/27 00:36:34;;;;;;;14.50;10.10;;;;;;;2.95;68.42;100997.88;690746;28;21526;-55
2021/01/27 00:36:55;;;;;;;15.45;10.07;;;;;;;2.95;68.49;101000.53;690625;28;23434;-59
2021/01/27 00:37:17;;;;;;;15.60;10.50;;;;;;;2.96;68.45;101007.56;690718;28;38735;-62
2021/01/27 00:37:38;;;;;;;15.82;10.57;;;;;;;2.96;68.48;100997.75;690747;28;22387;-60
2021/01/27 00:38:01;;;;;;;14.65;9.82;;;;;;;2.96;68.39;101003.09;690652;28;21335;-57
2021/01/27 00:38:24;;;;;;;15.07;9.70;;;;;;;2.96;68.57;101002.22;687957;28;92304;-62
2021/01/27 00:38:46;;;;;;;15.50;9.98;;;;;;;2.96;68.68;101002.22;688632;28;66862;-56
2021/01/27 00:39:07;;;;;;;14.85;9.57;;;;;;;2.95;68.60;101000.53;689994;28;45230;-59
2021/01/27 00:39:30;;;;;;;13.73;9.77;;;;;;;2.94;68.75;101002.34;690444;28;23541;-60
2021/01/27 00:39:51;;;;;;;13.93;9.95;;;;;;;2.93;68.43;101003.34;690413;28;23641;-60
2021/01/27 00:40:14;;;;;;;14.23;9.50;;;;;;;2.95;68.55;100995.22;690566;28;23487;-60
2021/01/27 00:40:36;;;;;;;15.00;9.43;;;;;;;2.95;68.51;101000.53;689369;28;69455;-57
2021/01/27 00:40:57;;;;;;;15.82;9.65;;;;;;;2.95;68.51;100998.72;690651;28;23471;-60
2021/01/27 00:41:18;;;;;;;14.88;9.57;;;;;;;2.96;68.54;101003.09;689785;28;46405;-61
2021/01/27 00:41:40;;;;;;;13.15;9.45;;;;;;;2.96;68.48;100999.56;690034;28;22410;-59
2021/01/27 00:42:01;;;;;;;14.73;10.18;;;;;;;2.97;68.33;101009.25;690639;28;22400;-60
2021/01/27 00:42:23;;;;;;;14.95;9.80;;;;;;;2.96;68.35;101000.44;690243;28;45315;-61
2021/01/27 00:42:44;;;;;;;13.18;9.80;;;;;;;2.98;68.35;100994.94;688288;28;46433;-61
2021/01/27 00:43:05;;;;;;;14.65;10.05;;;;;;;2.98;68.47;100998.47;689688;28;22386;-60
2021/01/27 00:43:27;;;;;;;15.35;10.05;;;;;;;2.99;68.37;101004.66;689372;28;22401;-57
2021/01/27 00:43:49;;;;;;;13.82;9.70;;;;;;;2.98;68.39;101002.94;687523;28;46331;-62
2021/01/27 00:44:10;;;;;;;14.95;9.85;;;;;;;2.97;68.32;101004.78;687355;28;44377;-62
2021/01/27 00:44:31;;;;;;;13.80;9.20;;;;;;;2.97;68.56;100998.59;689157;28;22382;-58
2021/01/27 00:44:53;;;;;;;13.88;9.73;;;;;;;2.97;68.50;100995.94;690182;28;22482;-63
2021/01/27 00:45:14;;;;;;;18.27;10.45;;;;;;;2.96;68.42;100995.09;690108;28;21528;-59
2021/01/27 00:45:36;;;;;;;16.42;10.15;;;;;;;2.96;68.46;100996.88;688303;28;46366;-59
2021/01/27 00:45:57;;;;;;;14.68;10.07;;;;;;;2.96;68.37;101003.09;688113;28;45244;-57
2021/01/27 00:46:19;;;;;;;15.13;9.73;;;;;;;2.97;68.48;101001.25;688934;28;23425;-61
2021/01/27 00:46:40;;;;;;;14.57;9.82;;;;;;;2.96;68.39;100997.75;687839;28;22385;-60
2021/01/27 00:47:01;;;;;;;15.07;10.05;;;;;;;2.96;68.46;100995.09;688024;28;46307;-59
2021/01/27 00:47:23;;;;;;;15.32;9.98;;;;;;;2.96;68.36;100992.41;689766;28;22514;-61
2021/01/27 00:47:44;;;;;;;15.02;9.65;;;;;;;2.96;68.53;100999.56;689376;28;46290;-60
2021/01/27 00:48:07;;;;;;;14.95;9.88;;;;;;;2.95;68.58;100997.88;690884;28;21514;-62
2021/01/27 00:48:28;;;;;;;16.27;9.55;;;;;;;2.94;68.44;100998.84;687147;28;69421;-61
2021/01/27 00:48:50;;;;;;;14.82;9.20;;;;;;;2.93;68.57;100991.78;689891;28;23522;-57
2021/01/27 00:49:11;;;;;;;15.13;10.23;;;;;;;2.93;68.46;100997.13;688833;28;45279;-60
2021/01/27 00:49:32;;;;;;;14.80;10.43;;;;;;;2.94;68.44;100993.50;690886;28;21306;-61
2021/01/27 00:49:54;;;;;;;15.45;10.07;;;;;;;2.93;68.38;101003.34;690531;28;23475;-60
2021/01/27 00:50:18;;;;;;;15.65;10.38;;;;;;;2.92;68.56;101001.63;685995;28;90378;-59
2021/01/27 00:50:46;;;;;;;14.68;10.07;;;;;;;2.92;68.61;100995.44;687284;28;59308;-59
2021/01/27 00:51:07;;;;;;;16.08;10.40;;;;;;;2.92;68.54;100993.63;687791;28;45127;-60
2021/01/27 00:51:28;;;;;;;15.25;10.15;;;;;;;2.93;68.69;101000.66;688429;28;22173;-58
2021/01/27 00:51:50;;;;;;;15.35;10.05;;;;;;;2.93;68.57;100994.47;685649;28;23494;-58
2021/01/27 00:52:12;;;;;;;14.70;9.52;;;;;;;2.93;68.65;100997.13;685545;28;67645;-56
2021/01/27 00:52:33;;;;;;;14.80;9.88;;;;;;;2.92;68.52;100996.28;687415;28;22401;-60
2021/01/27 00:52:54;;;;;;;14.13;9.48;;;;;;;2.93;68.64;100995.31;687762;28;22515;-55
2021/01/27 00:53:21;;;;;;;14.85;10.20;;;;;;;2.92;68.50;100993.63;683973;28;129109;-58
2021/01/27 00:53:43;;;;;;;15.32;9.80;;;;;;;2.94;68.59;100998.84;684808;28;69402;-59
2021/01/27 00:54:06;;;;;;;15.18;10.00;;;;;;;2.95;68.68;100987.22;683090;28;89092;-56
2021/01/27 00:54:28;;;;;;;14.63;9.82;;;;;;;2.97;68.48;100996.75;684272;28;44361;-57
2021/01/27 00:54:51;;;;;;;16.50;10.50;;;;;;;2.98;68.51;101000.28;680406;28;22411;-61
2021/01/27 00:55:14;;;;;;;14.88;9.48;;;;;;;2.98;68.40;100993.13;678074;29;67493;-57
2021/01/27 00:55:36;;;;;;;14.10;9.57;;;;;;;2.99;68.31;100996.66;675529;29;90899;-59
2021/01/27 00:55:57;;;;;;;15.00;9.60;;;;;;;2.97;68.27;100986.09;678344;29;22391;-54
2021/01/27 00:56:20;;;;;;;14.43;8.85;;;;;;;2.97;68.50;100995.94;677932;29;46624;-58
2021/01/27 00:56:42;;;;;;;13.00;9.00;;;;;;;2.98;68.40;100997.59;681243;28;46406;-55
2021/01/27 00:57:04;;;;;;;14.90;9.63;;;;;;;2.96;68.48;100995.09;679377;29;45256;-58
2021/01/27 00:57:26;;;;;;;15.07;9.80;;;;;;;2.96;68.29;100996.88;678188;29;46436;-58
2021/01/27 00:57:47;;;;;;;15.68;9.80;;;;;;;2.94;68.52;100994.34;678394;29;44427;-57
2021/01/27 00:58:09;;;;;;;14.50;9.90;;;;;;;2.94;68.49;100986.34;681027;28;21535;-57
2021/01/27 00:58:31;;;;;;;15.40;9.63;;;;;;;2.92;68.59;100982.94;677537;29;47321;-52
2021/01/27 00:58:55;;;;;;;12.73;9.18;;;;;;;2.93;68.54;100991.78;675420;29;106383;-57
2021/01/27 00:59:28;;;;;;;14.32;9.30;;;;;;;2.94;68.43;100994.34;678709;28;137659;-54
2021/01/27 00:59:49;;;;;;;15.55;9.43;;;;;;;2.93;68.50;100989.13;685884;28;23448;-55
2021/01/27 01:00:20;;;;;;;15.05;9.43;;;;;;;2.94;68.56;100997.00;685685;28;17427;-55
2021/01/27 01:00:43;;;;;;;16.52;10.20;;;;;;;2.94;68.42;100997.00;686463;28;133092;-56
2021/01/27 01:01:11;;;;;;;14.13;9.25;;;;;;;2.94;68.33;100994.34;686185;28;137835;-61
2021/01/27 01:01:33;;;;;;;16.13;9.32;;;;;;;2.95;68.54;100989.88;689033;28;21547;-56
2021/01/27 01:01:54;;;;;;;15.30;9.23;;;;;;;2.94;68.43;100991.66;687483;28;46369;-59
2021/01/27 01:02:30;;;;;;;13.30;8.98;;;;;;;2.95;68.51;100995.22;680623;28;158904;-59
2021/01/27 01:02:53;;;;;;;14.70;9.60;;;;;;;2.95;68.46;100989.88;684287;28;67485;-56
2021/01/27 01:03:14;;;;;;;15.48;9.73;;;;;;;2.95;68.55;100989.88;684465;28;44386;-59
2021/01/27 01:03:36;;;;;;;16.65;9.45;;;;;;;2.95;68.48;100990.72;688474;28;22419;-61
2021/01/27 01:03:57;;;;;;;13.65;8.95;;;;;;;2.93;68.52;100991.78;686660;28;44370;-60
2021/01/27 01:04:19;;;;;;;14.10;9.65;;;;;;;2.95;68.47;100996.03;689542;28;23421;-58
2021/01/27 01:04:40;;;;;;;13.68;9.15;;;;;;;2.95;68.52;100989.88;689967;28;44050;-59
2021/01/27 01:05:01;;;;;;;12.05;8.63;;;;;;;2.95;68.54;101000.53;690956;28;22496;-61
2021/01/27 01:05:25;;;;;;;12.63;8.70;;;;;;;2.94;68.49;101002.34;689897;28;44693;-63
2021/01/27 01:05:47;;;;;;;15.70;9.20;;;;;;;2.92;68.42;100996.28;688280;28;92267;-61
2021/01/27 01:06:09;;;;;;;15.63;9.30;;;;;;;2.93;68.54;100995.31;690331;28;48216;-56
2021/01/27 01:06:30;;;;;;;15.25;9.63;;;;;;;2.93;68.41;101003.34;691371;28;22405;-57
2021/01/27 01:06:51;;;;;;;14.60;9.23;;;;;;;2.93;68.43;101005.13;690530;28;45292;-61
2021/01/27 01:07:13;;;;;;;14.38;9.13;;;;;;;2.94;68.24;100999.69;690536;28;23415;-53
2021/01/27 01:07:34;;;;;;;13.10;8.93;;;;;;;2.96;68.44;101005.75;691323;28;21690;-59
2021/01/27 01:07:56;;;;;;;13.80;8.52;;;;;;;2.96;68.38;100996.88;690944;28;22400;-58
2021/01/27 01:08:18;;;;;;;14.73;9.23;;;;;;;2.95;68.24;100997.88;690848;28;37404;-60
2021/01/27 01:08:40;;;;;;;14.07;8.82;;;;;;;2.97;68.35;100998.59;691825;28;1518;-57
2021/01/27 01:09:01;;;;;;;15.18;8.80;;;;;;;2.97;68.27;100999.44;690215;28;22503;-55
2021/01/27 01:09:23;;;;;;;15.57;9.23;;;;;;;2.97;68.35;100993.25;689501;28;46408;-57
2021/01/27 01:09:44;;;;;;;14.50;9.23;;;;;;;2.97;68.31;101004.78;690143;28;24282;-54
2021/01/27 01:10:08;;;;;;;14.45;8.90;;;;;;;2.96;68.32;100995.09;691222;28;21852;-59
2021/01/27 01:10:31;;;;;;;12.80;8.25;;;;;;;2.96;68.38;100997.75;688986;28;66776;-58
2021/01/27 01:10:54;;;;;;;14.38;9.02;;;;;;;2.96;68.33;101002.22;688488;28;90263;-56
2021/01/27 01:11:15;;;;;;;15.73;9.20;;;;;;;2.97;68.35;100999.44;686424;28;68365;-57
2021/01/27 01:11:37;;;;;;;13.95;9.10;;;;;;;2.96;68.26;101003.09;687989;28;23384;-58
2021/01/27 01:11:58;;;;;;;14.25;9.40;;;;;;;2.96;68.42;101002.22;688253;28;21175;-59
2021/01/27 01:12:19;;;;;;;14.18;8.90;;;;;;;2.96;68.35;101007.56;688133;28;23600;-57
2021/01/27 01:12:40;;;;;;;14.07;9.20;;;;;;;2.95;68.41;101000.53;687326;28;46353;-59
2021/01/27 01:13:03;;;;;;;14.10;9.40;;;;;;;2.95;68.36;101003.22;688721;28;22393;-57
2021/01/27 01:13:26;;;;;;;14.93;9.15;;;;;;;2.93;68.25;101000.66;690591;28;44416;-56
2021/01/27 01:13:47;;;;;;;13.35;9.20;;;;;;;2.92;68.32;101001.63;686809;28;65754;-57
2021/01/27 01:14:08;;;;;;;12.25;8.82;;;;;;;2.93;68.39;100999.78;686708;28;23490;-58
2021/01/27 01:14:29;;;;;;;13.55;8.90;;;;;;;2.93;68.38;100999.78;687335;28;21490;-56
2021/01/27 01:14:51;;;;;;;13.57;8.70;;;;;;;2.93;68.50;100997.13;689010;28;23501;-58
2021/01/27 01:15:13;;;;;;;13.27;8.63;;;;;;;2.92;68.43;100993.63;687779;28;44386;-58
2021/01/27 01:15:34;;;;;;;11.77;8.32;;;;;;;2.92;68.42;101006.97;688302;28;46307;-54
2021/01/27 01:15:56;;;;;;;14.00;8.73;;;;;;;2.91;68.47;101001.75;690512;28;22409;-60
2021/01/27 01:16:18;;;;;;;13.32;8.63;;;;;;;2.92;68.50;101003.44;690592;28;46332;-61
2021/01/27 01:16:39;;;;;;;12.30;8.48;;;;;;;2.89;68.49;100992.03;691714;28;22554;-59
2021/01/27 01:17:00;;;;;;;15.02;9.77;;;;;;;2.92;68.41;100998.97;691232;28;21498;-57
2021/01/27 01:17:21;;;;;;;13.48;9.40;;;;;;;2.92;68.39;100998.13;690769;28;44519;-57
2021/01/27 01:17:43;;;;;;;14.02;8.88;;;;;;;2.91;68.49;101002.59;691346;28;18070;-58
2021/01/27 01:18:04;;;;;;;12.35;8.85;;;;;;;2.91;68.44;100999.91;690239;28;44378;-57
2021/01/27 01:18:26;;;;;;;11.90;8.63;;;;;;;2.92;68.44;101003.44;690917;28;22384;-58
2021/01/27 01:18:47;;;;;;;14.75;8.55;;;;;;;2.91;68.47;101007.91;691719;28;4750;-54
2021/01/27 01:19:09;;;;;;;13.57;8.57;;;;;;;2.92;68.46;101003.44;690379;28;46324;-58
2021/01/27 01:19:30;;;;;;;13.20;9.15;;;;;;;2.92;68.48;101003.44;690629;28;46333;-61
2021/01/27 01:19:51;;;;;;;14.20;9.20;;;;;;;2.92;68.44;101006.97;691311;28;22390;-58
2021/01/27 01:20:16;;;;;;;14.98;8.90;;;;;;;2.92;68.39;101006.13;692428;28;886;-54
2021/01/27 01:20:38;;;;;;;14.95;9.05;;;;;;;2.92;68.31;101003.44;688541;28;105131;-60
2021/01/27 01:20:59;;;;;;;14.23;8.95;;;;;;;2.92;68.47;101000.78;690477;28;46490;-56
2021/01/27 01:21:20;;;;;;;15.10;9.18;;;;;;;2.91;68.53;101005.25;692317;28;878;-55
2021/01/27 01:21:41;;;;;;;12.52;8.85;;;;;;;2.92;68.42;100998.13;691303;28;21664;-56
2021/01/27 01:22:03;;;;;;;11.80;8.23;;;;;;;2.92;68.57;101006.13;691485;28;23485;-54
2021/01/27 01:22:25;;;;;;;12.98;8.50;;;;;;;2.91;68.44;101005.25;690881;28;22395;-61
2021/01/27 01:22:49;;;;;;;12.00;8.88;;;;;;;2.91;68.20;100999.06;689649;28;68353;-57
2021/01/27 01:23:10;;;;;;;14.55;8.98;;;;;;;2.91;68.41;101001.75;690336;28;60448;-61
2021/01/27 01:23:32;;;;;;;13.30;8.73;;;;;;;2.89;68.45;101005.38;690276;28;44422;-58
2021/01/27 01:23:53;;;;;;;13.18;8.57;;;;;;;2.88;68.44;100995.69;689743;28;46553;-60
2021/01/27 01:24:14;;;;;;;12.32;8.77;;;;;;;2.89;68.48;101005.38;691553;28;23451;-57
2021/01/27 01:24:35;;;;;;;11.88;8.35;;;;;;;2.89;68.29;100999.19;691307;28;22374;-60
2021/01/27 01:24:57;;;;;;;12.52;8.68;;;;;;;2.88;68.53;100995.69;691485;28;17719;-54
2021/01/27 01:25:21;;;;;;;13.48;9.18;;;;;;;2.91;68.51;100993.75;691386;28;23087;-62
2021/01/27 01:25:42;;;;;;;12.80;9.02;;;;;;;2.89;68.43;100997.38;688978;28;77372;-59
2021/01/27 01:26:04;;;;;;;11.77;8.52;;;;;;;2.90;68.36;100995.56;691592;28;11336;-57
2021/01/27 01:26:25;;;;;;;13.65;9.23;;;;;;;2.90;68.41;100995.56;692284;28;938;-56
2021/01/27 01:26:47;;;;;;;13.25;9.35;;;;;;;2.89;68.47;100994.69;691690;28;1062;-57
2021/01/27 01:27:13;;;;;;;13.07;8.82;;;;;;;2.89;68.91;100992.03;691088;28;38147;-59
2021/01/27 01:27:34;;;;;;;13.15;8.48;;;;;;;2.88;68.50;100995.69;690239;28;45544;-56
2021/01/27 01:27:55;;;;;;;13.68;8.43;;;;;;;2.88;68.38;100989.47;691732;28;23401;-57
2021/01/27 01:28:17;;;;;;;14.80;8.95;;;;;;;2.88;68.35;100992.16;691096;28;20951;-56
2021/01/27 01:28:40;;;;;;;13.40;9.27;;;;;;;2.86;68.52;100989.59;691683;28;1157;-59
2021/01/27 01:29:01;;;;;;;13.10;8.40;;;;;;;2.88;68.44;100995.69;689180;28;43828;-55
2021/01/27 01:29:22;;;;;;;14.70;8.88;;;;;;;2.88;68.45;100998.34;689850;28;23277;-60
2021/01/27 01:29:43;;;;;;;12.80;9.40;;;;;;;2.88;68.49;100994.81;689679;28;22341;-56
2021/01/27 01:30:09;;;;;;;13.23;9.50;;;;;;;2.87;68.42;100993.97;690251;28;1012;-60
2021/01/27 01:30:32;;;;;;;13.05;8.63;;;;;;;2.86;68.49;100992.28;685921;28;136877;-58
2021/01/27 01:30:53;;;;;;;12.50;8.73;;;;;;;2.85;68.51;100993.25;689161;28;67436;-56
2021/01/27 01:31:14;;;;;;;14.05;8.90;;;;;;;2.85;68.54;100998.59;691656;28;16066;-59
2021/01/27 01:31:35;;;;;;;14.98;9.10;;;;;;;2.85;68.51;100995.94;690905;28;22410;-58
2021/01/27 01:31:57;;;;;;;14.05;9.07;;;;;;;2.86;68.56;100992.28;690620;28;21493;-60
2021/01/27 01:32:18;;;;;;;12.80;9.00;;;;;;;2.86;68.63;101002.94;691360;28;23469;-60
2021/01/27 01:32:40;;;;;;;13.63;8.77;;;;;;;2.85;68.39;100995.06;691505;28;22410;-60
2021/01/27 01:33:08;;;;;;;13.32;8.82;;;;;;;2.86;68.55;100997.59;690504;28;46475;-57
2021/01/27 01:33:31;;;;;;;12.85;8.60;;;;;;;2.88;68.52;100997.50;687172;28;137837;-56
2021/01/27 01:33:53;;;;;;;14.23;8.95;;;;;;;2.87;68.63;100996.66;690043;28;57990;-58
2021/01/27 01:34:14;;;;;;;13.48;8.88;;;;;;;2.86;68.53;100992.28;690235;28;45320;-58
2021/01/27 01:34:35;;;;;;;13.98;8.52;;;;;;;2.88;68.48;100995.69;690670;28;22328;-57
2021/01/27 01:34:56;;;;;;;13.68;8.95;;;;;;;2.88;68.54;100998.34;691386;28;23490;-57
2021/01/27 01:35:20;;;;;;;14.95;9.15;;;;;;;2.87;68.52;100996.66;690605;28;45269;-61
2021/01/27 01:35:42;;;;;;;14.35;8.80;;;;;;;2.87;68.54;100993.16;689539;28;69427;-56
2021/01/27 01:36:03;;;;;;;14.00;8.98;;;;;;;2.86;68.53;100994.09;689532;28;46362;-58
2021/01/27 01:36:25;;;;;;;14.82;9.27;;;;;;;2.87;68.47;100991.31;690603;28;45327;-59
2021/01/27 01:36:46;;;;;;;12.88;8.85;;;;;;;2.87;68.45;100995.81;691439;28;22674;-60
2021/01/27 01:37:07;;;;;;;14.57;9.05;;;;;;;2.87;68.53;100993.16;691127;28;22459;-60
2021/01/27 01:37:29;;;;;;;12.57;8.80;;;;;;;2.87;68.54;100988.66;690196;28;46362;-56
2021/01/27 01:37:50;;;;;;;13.85;8.88;;;;;;;2.87;68.42;100987.81;691100;28;21470;-57
2021/01/27 01:38:13;;;;;;;13.88;9.02;;;;;;;2.87;68.42;100985.97;691062;28;22381;-60
2021/01/27 01:38:35;;;;;;;13.30;8.77;;;;;;;2.89;68.42;100988.53;690841;28;13385;-58
2021/01/27 01:38:56;;;;;;;14.35;9.02;;;;;;;2.88;68.48;100990.34;691527;28;12465;-60
2021/01/27 01:39:17;;;;;;;14.68;8.90;;;;;;;2.87;68.32;100991.31;691385;28;16977;-55
2021/01/27 01:39:39;;;;;;;14.82;8.77;;;;;;;2.84;68.41;100982.72;690344;28;44398;-61
2021/01/27 01:40:00;;;;;;;13.23;9.07;;;;;;;2.87;68.55;100985.13;691563;28;22379;-58
2021/01/27 01:40:24;;;;;;;13.85;9.10;;;;;;;2.88;68.46;100992.16;691474;28;23461;-59
2021/01/27 01:40:48;;;;;;;12.98;8.60;;;;;;;2.87;68.53;100985.97;690178;28;38640;-62
2021/01/27 01:41:10;;;;;;;12.38;8.50;;;;;;;2.88;68.41;100993.03;689900;28;58109;-59
2021/01/27 01:41:31;;;;;;;13.52;8.82;;;;;;;2.87;68.48;100990.47;690264;28;44390;-56
2021/01/27 01:41:52;;;;;;;13.60;8.82;;;;;;;2.87;68.48;100991.31;690301;28;47509;-58
2021/01/27 01:42:16;;;;;;;14.02;9.18;;;;;;;2.86;68.42;100986.09;691235;28;22378;-58
2021/01/27 01:42:38;;;;;;;13.68;8.95;;;;;;;2.86;68.43;100988.75;689051;28;92433;-58
2021/01/27 01:43:07;;;;;;;14.32;9.25;;;;;;;2.85;68.49;100987.06;690987;28;22383;-56
2021/01/27 01:43:31;;;;;;;14.77;9.38;;;;;;;2.87;68.51;100990.47;687536;28;137845;-56